• Join FlightAware (Why Join?)
  • Login
  • US Flag 
08:45AM EDT


 

Airport Tracker/Info


-or-


 

Live Flight TrackerFlight Track Log ✈ RPA3228 ✈ 23-May-2013 ✈ KDCA - KBUF

Flight Track Log - Related Links

Times and Time Zones

All times are in EDT time to prevent confusion due to time zone crossing. See the RPA3228 flight status page for this flight to view local times or setup timezone preferences in your user account.

Time Position Orientation Groundspeed Altitude Reporting Facility
EDT Latitude Longitude Course Direction KTS MPH feet Rate Location/Type
10:21AM 38.7833 -77.0333 333° Northwest 202 232 2,700  Level Potomac TRACON
10:22AM 39.0861 -77.1597 339° North  Level FlightAware Approximate
10:22AM 38.7500 -77.0833 229° Southwest 251 289 4,900  Level Potomac TRACON
10:22AM 38.7489 -77.1514 269° West 257 296 5,100 2,040 Climbing Washington Center
10:23AM 39.1679 -77.2051 330° Northwest  Level FlightAware Approximate
10:23AM 38.8064 -77.2194 317° Northwest 281 323 8,500  Level Washington Center
10:24AM 39.2529 -77.2442 337° Northwest  Level FlightAware Approximate
10:24AM 38.8722 -77.2819 324° Northwest 304 350 11,300  Level Washington Center
10:25AM 39.3363 -77.2905 337° Northwest  Level FlightAware Approximate
10:25AM 38.9000 -77.3000 333° Northwest 315 362 12,200  Level Potomac TRACON
10:26AM 39.4170 -77.3391 333° Northwest  Level FlightAware Approximate
10:26AM 38.9667 -77.3667 322° Northwest 350 403 14,700  Level Potomac TRACON
10:27AM 39.0667 -77.4167 339° North 369 425 17,000 1,200 Climbing Potomac TRACON
10:28AM 39.1500 -77.4333 351° North 364 419 17,000 600 Level Potomac TRACON
10:29AM 39.3453 -77.4381 359° North 368 423 18,700 1,380 Climbing Washington Center
10:30AM 39.4514 -77.4433 358° North 368 423 21,000 1,980 Climbing Washington Center
10:33AM 39.7261 -77.4547 358° North 419 482 25,700 1,440 Climbing New York Center
10:34AM 39.8450 -77.4525 North 424 488 26,000 120 Climbing New York Center
10:35AM 39.9675 -77.4642 356° North 429 494 26,000  Level New York Center
10:36AM 40.0819 -77.5050 345° North 429 494 26,000  Level New York Center
10:37AM 40.1981 -77.5489 344° North 429 494 26,000  Level New York Center
10:38AM 40.3267 -77.5997 343° North 436 502 26,000  Level New York Center
10:39AM 40.4408 -77.6436 344° North 431 496 26,000  Level New York Center
10:40AM 40.5569 -77.6881 344° North 431 496 26,000  Level New York Center
10:42AM 40.8169 -77.7900 343° North 439 505 26,000  Level Cleveland Center
10:43AM 40.9306 -77.8375 342° North 439 505 26,000  Level Cleveland Center
10:44AM 41.0569 -77.8872 343° North 428 493 26,000  Level Cleveland Center
10:45AM 41.1725 -77.9319 344° North 428 493 26,000  Level Cleveland Center
10:46AM 41.2842 -77.9744 344° North 428 493 26,000  Level Cleveland Center
10:47AM 41.3997 -78.0225 343° North 428 493 26,000  Level Cleveland Center
10:48AM 41.5192 -78.0456 352° North 428 493 26,000  Level Cleveland Center
10:49AM 41.6425 -78.0656 353° North 433 498 26,000 -60 Level Cleveland Center
10:50AM 41.7725 -78.0883 353° North 448 516 25,900 -1,260 Descending Cleveland Center
10:51AM 41.8958 -78.1117 352° North 453 521 23,500 -2,340 Descending Cleveland Center
10:52AM 42.0069 -78.1325 352° North 453 521 21,300 -2,220 Descending Cleveland Center
10:53AM 42.1181 -78.1731 345° North 428 493 19,100 -2,340 Descending Cleveland Center
10:54AM 42.2194 -78.2308 337° Northwest 403 464 16,700 -2,400 Descending Cleveland Center
10:55AM 42.3186 -78.2889 337° Northwest 391 450 14,300 -2,340 Descending Cleveland Center
10:56AM 42.4114 -78.3417 337° Northwest 371 427 12,100 -2,160 Descending Cleveland Center
10:57AM 42.5036 -78.3639 350° North 351 404 10,000 -1,920 Descending Cleveland Center
10:58AM 42.5892 -78.3722 356° North 326 375 8,300 -1,800 Descending Cleveland Center
10:59AM 42.6686 -78.3833 354° North 300 345 6,500 -1,680 Descending Cleveland Center
11:00AM 42.7544 -78.4003 352° North 289 333 5,000 -780 Descending Cleveland Center
11:01AM 42.8317 -78.4117 354° North 279 321 5,000  Level Cleveland Center
11:02AM 42.9006 -78.4206 355° North 274 315 5,000  Level Cleveland Center
11:03AM 42.9736 -78.4294 355° North 274 315 5,000  Level Cleveland Center
11:04AM 43.0467 -78.4297 360° North 256 295 5,000 -960 Level Cleveland Center
11:06AM 43.0833 -78.5333 296° West 195 224 2,300 -1,020 Descending Buffalo TRACON
11:07AM 43.0667 -78.5667 236° Southwest 164 189 2,300  Level Buffalo TRACON
11:08AM 43.0333 -78.6167 228° Southwest 162 186 2,400 60 Climbing Buffalo TRACON